Time;durP1;ratioP1;P1;durP2;ratioP2;P2;SDS_P1;SDS_P2;PMS_P1;PMS_P2;Temp;Humidity;BMP_temperature;BMP_pressure;BME280_temperature;BME280_humidity;BME280_pressure;Samples;Min_cycle;Max_cycle;Signal;HPM_P1;HPM_P2
2022/10/16 00:00:55;;;;;;;;;;;;;;;;;;2106422;28;19920;-44
2022/10/16 00:01:55;;;;;;;;;;;;;;;;;;2106317;28;19966;-44
2022/10/16 00:02:56;;;;;;;;;;;;;;;;;;2106321;28;19920;-44
2022/10/16 00:03:57;;;;;;;;;;;;;;;;;;2106427;28;19974;-44
2022/10/16 00:04:58;;;;;;;;;;;;;;;;;;2106372;28;20395;-44
2022/10/16 00:05:58;;;;;;;;;;;;;;;;;;2106543;28;20042;-44
2022/10/16 00:06:59;;;;;;;;;;;;;;;;;;2106314;28;19920;-44
2022/10/16 00:08:00;;;;;;;;;;;;;;;;;;2106339;28;19920;-44
2022/10/16 00:09:01;;;;;;;;;;;;;;;;;;2106419;28;19919;-44
2022/10/16 00:10:02;;;;;;;;;;;;;;;;;;2103000;28;19920;-44
2022/10/16 00:11:03;;;;;;;;;;;;;;;;;;2098023;28;20006;-44
2022/10/16 00:12:06;;;;;;;;;;;;;;;;;;2097927;28;19920;-44
2022/10/16 00:13:07;;;;;;;;;;;;;;;;;;2098100;28;19924;-44
2022/10/16 00:14:08;;;;;;;;;;;;;;;;;;2098187;28;19921;-44
2022/10/16 00:15:09;;;;;;;;;;;;;;;;;;2097948;28;19974;-44
2022/10/16 00:16:09;;;;;;;;;;;;;;;;;;2097987;28;20019;-44
2022/10/16 00:17:10;;;;;;;;;;;;;;;;;;2097921;28;20311;-44
2022/10/16 00:18:11;;;;;;;;;;;;;;;;;;2097993;28;19927;-44
2022/10/16 00:19:12;;;;;;;;;;;;;;;;;;2097999;28;19920;-44
2022/10/16 00:20:12;;;;;;;;;;;;;;;;;;2097976;28;20014;-44
2022/10/16 00:21:13;;;;;;;;;;;;;;;;;;2097943;28;20369;-44
2022/10/16 00:22:14;;;;;;;;;;;;;;;;;;2097860;28;19927;-44
2022/10/16 00:23:15;;;;;;;;;;;;;;;;;;2097924;28;20019;-44
2022/10/16 00:24:16;;;;;;;;;;;;;;;;;;2098083;28;20017;-44
2022/10/16 00:25:17;;;;;;;;;;;;;;;;;;2102476;28;20363;-44
2022/10/16 00:26:17;;;;;;;;;;;;;;;;;;2106285;28;19926;-44
2022/10/16 00:27:18;;;;;;;;;;;;;;;;;;2106240;28;19920;-44
2022/10/16 00:28:19;;;;;;;;;;;;;;;;;;2106283;28;20266;-44
2022/10/16 00:29:20;;;;;;;;;;;;;;;;;;2106221;28;19920;-44
2022/10/16 00:30:21;;;;;;;;;;;;;;;;;;2106296;28;20177;-44
2022/10/16 00:31:21;;;;;;;;;;;;;;;;;;2106358;28;19926;-44
2022/10/16 00:32:22;;;;;;;;;;;;;;;;;;2106383;28;19924;-56
2022/10/16 00:33:23;;;;;;;;;;;;;;;;;;2106241;28;19920;-56
2022/10/16 00:34:24;;;;;;;;;;;;;;;;;;2106178;28;19919;-56
2022/10/16 00:35:25;;;;;;;;;;;;;;;;;;2106295;28;20016;-56
2022/10/16 00:36:26;;;;;;;;;;;;;;;;;;2106239;28;20382;-56
2022/10/16 00:37:27;;;;;;;;;;;;;;;;;;2106219;28;19927;-56
2022/10/16 00:38:27;;;;;;;;;;;;;;;;;;2106253;28;20373;-56
2022/10/16 00:39:28;;;;;;;;;;;;;;;;;;2106243;28;20331;-56
2022/10/16 00:40:29;;;;;;;;;;;;;;;;;;2106156;28;19920;-56
2022/10/16 00:41:30;;;;;;;;;;;;;;;;;;2106250;28;20006;-56
2022/10/16 00:42:31;;;;;;;;;;;;;;;;;;2106187;28;19990;-56
2022/10/16 00:43:32;;;;;;;;;;;;;;;;;;2106329;28;20047;-56
2022/10/16 00:44:32;;;;;;;;;;;;;;;;;;2106190;28;19931;-56
2022/10/16 00:45:33;;;;;;;;;;;;;;;;;;2106166;28;19974;-56
2022/10/16 00:46:34;;;;;;;;;;;;;;;;;;2106242;28;19964;-56
2022/10/16 00:47:35;;;;;;;;;;;;;;;;;;2106160;28;20434;-56
2022/10/16 00:48:36;;;;;;;;;;;;;;;;;;2106425;28;19926;-56
2022/10/16 00:49:37;;;;;;;;;;;;;;;;;;2106122;28;20014;-56
2022/10/16 00:50:38;;;;;;;;;;;;;;;;;;2106114;28;19920;-56
2022/10/16 00:51:39;;;;;;;;;;;;;;;;;;2106154;28;19920;-56
2022/10/16 00:52:40;;;;;;;;;;;;;;;;;;2106178;28;19967;-56
2022/10/16 00:53:41;;;;;;;;;;;;;;;;;;2106282;28;20018;-56
2022/10/16 00:54:41;;;;;;;;;;;;;;;;;;2106097;28;20331;-56
2022/10/16 00:55:42;;;;;;;;;;;;;;;;;;2106224;28;20417;-56
2022/10/16 00:56:43;;;;;;;;;;;;;;;;;;2105976;28;19931;-56
2022/10/16 00:57:44;;;;;;;;;;;;;;;;;;2106248;28;20356;-56
2022/10/16 00:58:45;;;;;;;;;;;;;;;;;;2106118;28;19927;-56
2022/10/16 00:59:46;;;;;;;;;;;;;;;;;;2106134;28;20019;-56
2022/10/16 01:00:46;;;;;;;;;;;;;;;;;;2106052;28;19920;-56
2022/10/16 01:01:47;;;;;;;;;;;;;;;;;;2106043;28;19928;-56
2022/10/16 01:02:48;;;;;;;;;;;;;;;;;;2106024;28;19927;-56
2022/10/16 01:03:49;;;;;;;;;;;;;;;;;;2106245;28;19967;-56
2022/10/16 01:04:50;;;;;;;;;;;;;;;;;;2106187;28;20288;-56
2022/10/16 01:05:53;;;;;;;;;;;;;;;;;;2106068;28;20392;-56
2022/10/16 01:06:54;;;;;;;;;;;;;;;;;;2106124;28;19927;-56
2022/10/16 01:07:55;;;;;;;;;;;;;;;;;;2105934;28;20364;-56
2022/10/16 01:08:55;;;;;;;;;;;;;;;;;;2106087;28;19927;-56
2022/10/16 01:09:56;;;;;;;;;;;;;;;;;;2103338;28;19927;-56
2022/10/16 01:10:57;;;;;;;;;;;;;;;;;;2097784;28;19920;-56
2022/10/16 01:11:59;;;;;;;;;;;;;;;;;;2097697;28;19920;-56
2022/10/16 01:13:00;;;;;;;;;;;;;;;;;;2097720;28;19920;-56
2022/10/16 01:14:01;;;;;;;;;;;;;;;;;;2097774;28;20009;-56
2022/10/16 01:15:01;;;;;;;;;;;;;;;;;;2098675;28;19920;-56
2022/10/16 01:16:02;;;;;;;;;;;;;;;;;;2099150;28;19949;-56
2022/10/16 01:17:03;;;;;;;;;;;;;;;;;;2098842;28;19926;-56
2022/10/16 01:18:04;;;;;;;;;;;;;;;;;;2099112;28;19963;-56
2022/10/16 01:19:05;;;;;;;;;;;;;;;;;;2099055;28;19920;-56
2022/10/16 01:20:06;;;;;;;;;;;;;;;;;;2099151;28;20391;-56
2022/10/16 01:21:06;;;;;;;;;;;;;;;;;;2100207;28;20300;-56
2022/10/16 01:22:07;;;;;;;;;;;;;;;;;;2107370;28;19943;-56
2022/10/16 01:23:08;;;;;;;;;;;;;;;;;;2107361;28;19977;-56
2022/10/16 01:24:09;;;;;;;;;;;;;;;;;;2107533;28;19920;-56
2022/10/16 01:25:09;;;;;;;;;;;;;;;;;;2107466;28;20330;-56
2022/10/16 01:26:10;;;;;;;;;;;;;;;;;;2107348;28;19924;-56
2022/10/16 01:27:11;;;;;;;;;;;;;;;;;;2107403;28;19965;-56
2022/10/16 01:28:12;;;;;;;;;;;;;;;;;;2107318;28;19924;-56
2022/10/16 01:29:13;;;;;;;;;;;;;;;;;;2107504;28;19962;-56
2022/10/16 01:30:14;;;;;;;;;;;;;;;;;;2107367;28;19986;-56
2022/10/16 01:31:15;;;;;;;;;;;;;;;;;;2107526;28;19924;-56
2022/10/16 01:32:16;;;;;;;;;;;;;;;;;;2107198;28;19924;-56
2022/10/16 01:33:16;;;;;;;;;;;;;;;;;;2107491;28;19920;-56
2022/10/16 01:34:17;;;;;;;;;;;;;;;;;;2107454;28;19927;-56
2022/10/16 01:35:18;;;;;;;;;;;;;;;;;;2107431;28;20285;-56
2022/10/16 01:36:19;;;;;;;;;;;;;;;;;;2107360;28;19920;-56
2022/10/16 01:37:19;;;;;;;;;;;;;;;;;;2107152;28;19920;-56
2022/10/16 01:38:20;;;;;;;;;;;;;;;;;;2107444;28;20313;-56
2022/10/16 01:39:21;;;;;;;;;;;;;;;;;;2107343;28;19971;-56
2022/10/16 01:40:22;;;;;;;;;;;;;;;;;;2107258;28;19999;-56
2022/10/16 01:41:24;;;;;;;;;;;;;;;;;;2107328;28;20376;-56
2022/10/16 01:42:25;;;;;;;;;;;;;;;;;;2107209;28;20387;-56
2022/10/16 01:43:26;;;;;;;;;;;;;;;;;;2107268;28;19927;-56
2022/10/16 01:44:27;;;;;;;;;;;;;;;;;;2107375;28;19921;-56
2022/10/16 01:45:27;;;;;;;;;;;;;;;;;;2107513;28;20303;-56
2022/10/16 01:46:28;;;;;;;;;;;;;;;;;;2107185;28;20377;-56
2022/10/16 01:47:29;;;;;;;;;;;;;;;;;;2107408;28;19923;-56
2022/10/16 01:48:30;;;;;;;;;;;;;;;;;;2107266;28;19923;-56
2022/10/16 01:49:31;;;;;;;;;;;;;;;;;;2107380;28;19924;-56
2022/10/16 01:50:32;;;;;;;;;;;;;;;;;;2107246;28;19927;-56
2022/10/16 01:51:32;;;;;;;;;;;;;;;;;;2107332;28;19924;-56
2022/10/16 01:52:33;;;;;;;;;;;;;;;;;;2107284;28;19969;-56
2022/10/16 01:53:34;;;;;;;;;;;;;;;;;;2107228;28;19927;-56
2022/10/16 01:54:35;;;;;;;;;;;;;;;;;;2107272;28;19926;-56
2022/10/16 01:55:35;;;;;;;;;;;;;;;;;;2107331;28;19919;-56
2022/10/16 01:56:36;;;;;;;;;;;;;;;;;;2107209;28;19974;-56
2022/10/16 01:57:37;;;;;;;;;;;;;;;;;;2107186;28;19920;-56
2022/10/16 01:58:38;;;;;;;;;;;;;;;;;;2107231;28;20018;-56
2022/10/16 01:59:39;;;;;;;;;;;;;;;;;;2107134;28;19920;-56
2022/10/16 02:00:40;;;;;;;;;;;;;;;;;;2107300;28;19963;-56
2022/10/16 02:01:40;;;;;;;;;;;;;;;;;;2107146;28;20285;-56
2022/10/16 02:02:41;;;;;;;;;;;;;;;;;;2107307;28;20246;-56
2022/10/16 02:03:42;;;;;;;;;;;;;;;;;;2107120;28;19920;-56
2022/10/16 02:04:43;;;;;;;;;;;;;;;;;;2107278;28;19970;-56
2022/10/16 02:05:44;;;;;;;;;;;;;;;;;;2107235;28;20298;-56
2022/10/16 02:06:45;;;;;;;;;;;;;;;;;;2107188;28;19924;-56
2022/10/16 02:07:45;;;;;;;;;;;;;;;;;;2107154;28;19934;-56
2022/10/16 02:08:46;;;;;;;;;;;;;;;;;;2107075;28;19927;-56
2022/10/16 02:09:47;;;;;;;;;;;;;;;;;;2105788;28;19924;-56
2022/10/16 02:10:48;;;;;;;;;;;;;;;;;;2098795;28;20369;-56
2022/10/16 02:11:49;;;;;;;;;;;;;;;;;;2098764;28;19920;-56
2022/10/16 02:12:50;;;;;;;;;;;;;;;;;;2098761;28;19928;-56
2022/10/16 02:13:50;;;;;;;;;;;;;;;;;;2098730;28;19947;-56
2022/10/16 02:14:51;;;;;;;;;;;;;;;;;;2098621;28;19974;-56
2022/10/16 02:15:52;;;;;;;;;;;;;;;;;;2098734;28;19927;-56
2022/10/16 02:16:53;;;;;;;;;;;;;;;;;;2098725;28;20052;-56
2022/10/16 02:17:54;;;;;;;;;;;;;;;;;;2103539;28;19920;-56
2022/10/16 02:18:55;;;;;;;;;;;;;;;;;;2107132;28;20019;-56
2022/10/16 02:19:55;;;;;;;;;;;;;;;;;;2106970;28;19924;-56
2022/10/16 02:20:56;;;;;;;;;;;;;;;;;;2107178;28;20015;-56
2022/10/16 02:21:57;;;;;;;;;;;;;;;;;;2106954;28;20385;-56
2022/10/16 02:22:58;;;;;;;;;;;;;;;;;;2107002;28;19924;-56
2022/10/16 02:23:59;;;;;;;;;;;;;;;;;;2107025;28;19920;-56
2022/10/16 02:25:00;;;;;;;;;;;;;;;;;;2107144;28;19931;-56
2022/10/16 02:26:00;;;;;;;;;;;;;;;;;;2106571;28;19927;-56
2022/10/16 02:27:01;;;;;;;;;;;;;;;;;;2106414;28;19966;-56
2022/10/16 02:28:02;;;;;;;;;;;;;;;;;;2107043;28;19947;-56
2022/10/16 02:29:04;;;;;;;;;;;;;;;;;;2106944;28;19971;-56
2022/10/16 02:30:07;;;;;;;;;;;;;;;;;;2106960;28;19925;-56
2022/10/16 02:31:08;;;;;;;;;;;;;;;;;;2106980;28;20316;-56
2022/10/16 02:32:10;;;;;;;;;;;;;;;;;;2106874;28;19920;-55
2022/10/16 02:33:11;;;;;;;;;;;;;;;;;;2106942;28;19989;-56
2022/10/16 02:34:11;;;;;;;;;;;;;;;;;;2106946;28;20361;-56
2022/10/16 02:35:12;;;;;;;;;;;;;;;;;;2106999;28;20149;-56
2022/10/16 02:36:13;;;;;;;;;;;;;;;;;;2107072;28;19924;-56
2022/10/16 02:37:14;;;;;;;;;;;;;;;;;;2106936;28;20380;-56
2022/10/16 02:38:15;;;;;;;;;;;;;;;;;;2106767;28;20323;-56
2022/10/16 02:39:15;;;;;;;;;;;;;;;;;;2107032;28;19962;-56
2022/10/16 02:40:16;;;;;;;;;;;;;;;;;;2106932;28;19943;-56
2022/10/16 02:41:19;;;;;;;;;;;;;;;;;;2106878;28;19927;-57
2022/10/16 02:42:20;;;;;;;;;;;;;;;;;;2106806;28;19965;-56
2022/10/16 02:43:21;;;;;;;;;;;;;;;;;;2107003;28;20051;-56
2022/10/16 02:44:22;;;;;;;;;;;;;;;;;;2106889;28;20377;-56
2022/10/16 02:45:22;;;;;;;;;;;;;;;;;;2106889;28;19983;-56
2022/10/16 02:46:23;;;;;;;;;;;;;;;;;;2106945;28;20057;-56
2022/10/16 02:47:24;;;;;;;;;;;;;;;;;;2106890;28;19955;-56
2022/10/16 02:48:25;;;;;;;;;;;;;;;;;;2106863;28;19924;-57
2022/10/16 02:49:26;;;;;;;;;;;;;;;;;;2106840;28;19970;-56
2022/10/16 02:50:26;;;;;;;;;;;;;;;;;;2106962;28;20277;-56
2022/10/16 02:51:27;;;;;;;;;;;;;;;;;;2106857;28;20363;-56
2022/10/16 02:52:28;;;;;;;;;;;;;;;;;;2106881;28;20022;-56
2022/10/16 02:53:29;;;;;;;;;;;;;;;;;;2106815;28;19965;-56
2022/10/16 02:54:30;;;;;;;;;;;;;;;;;;2106967;28;20450;-56
2022/10/16 02:55:31;;;;;;;;;;;;;;;;;;2106901;28;20385;-57
2022/10/16 02:56:32;;;;;;;;;;;;;;;;;;2106718;28;20062;-56
2022/10/16 02:57:32;;;;;;;;;;;;;;;;;;2106824;28;19923;-56
2022/10/16 02:58:33;;;;;;;;;;;;;;;;;;2106816;28;20333;-56
2022/10/16 02:59:34;;;;;;;;;;;;;;;;;;2106766;28;20006;-56
2022/10/16 03:00:35;;;;;;;;;;;;;;;;;;2106766;28;20384;-56
2022/10/16 03:01:36;;;;;;;;;;;;;;;;;;2106803;28;20375;-56
2022/10/16 03:02:37;;;;;;;;;;;;;;;;;;2106763;28;19919;-56
2022/10/16 03:03:38;;;;;;;;;;;;;;;;;;2106956;28;19920;-56
2022/10/16 03:04:38;;;;;;;;;;;;;;;;;;2106753;28;20289;-57
2022/10/16 03:05:39;;;;;;;;;;;;;;;;;;2106810;28;19955;-56
2022/10/16 03:06:40;;;;;;;;;;;;;;;;;;2106645;28;20390;-57
2022/10/16 03:07:41;;;;;;;;;;;;;;;;;;2106759;28;19959;-56
2022/10/16 03:08:42;;;;;;;;;;;;;;;;;;2106862;28;19920;-58
2022/10/16 03:09:43;;;;;;;;;;;;;;;;;;2105914;28;19970;-56
2022/10/16 03:10:43;;;;;;;;;;;;;;;;;;2098353;28;19924;-56
2022/10/16 03:11:44;;;;;;;;;;;;;;;;;;2098299;28;19920;-56
2022/10/16 03:12:45;;;;;;;;;;;;;;;;;;2098345;28;19927;-56
2022/10/16 03:13:46;;;;;;;;;;;;;;;;;;2100007;28;19927;-56
2022/10/16 03:14:47;;;;;;;;;;;;;;;;;;2106785;28;19920;-56
2022/10/16 03:15:47;;;;;;;;;;;;;;;;;;2106791;28;20582;-56
2022/10/16 03:16:48;;;;;;;;;;;;;;;;;;2106526;28;20014;-55
2022/10/16 03:17:49;;;;;;;;;;;;;;;;;;2106772;28;19951;-56
2022/10/16 03:18:50;;;;;;;;;;;;;;;;;;2106859;28;20097;-56
2022/10/16 03:19:51;;;;;;;;;;;;;;;;;;2106700;28;19971;-56
2022/10/16 03:20:51;;;;;;;;;;;;;;;;;;2106613;28;19973;-56
2022/10/16 03:21:52;;;;;;;;;;;;;;;;;;2106652;28;19927;-56
2022/10/16 03:22:53;;;;;;;;;;;;;;;;;;2106459;28;19924;-56
2022/10/16 03:23:54;;;;;;;;;;;;;;;;;;2106603;28;20347;-56
2022/10/16 03:24:55;;;;;;;;;;;;;;;;;;2106575;28;19969;-56
2022/10/16 03:25:56;;;;;;;;;;;;;;;;;;2106754;28;19971;-56
2022/10/16 03:26:57;;;;;;;;;;;;;;;;;;2106622;28;19923;-56
2022/10/16 03:27:58;;;;;;;;;;;;;;;;;;2106641;28;19920;-56
2022/10/16 03:28:58;;;;;;;;;;;;;;;;;;2106648;28;19984;-56
2022/10/16 03:29:59;;;;;;;;;;;;;;;;;;2106533;28;20404;-56
2022/10/16 03:31:00;;;;;;;;;;;;;;;;;;2106602;28;20024;-57
2022/10/16 03:32:01;;;;;;;;;;;;;;;;;;2106543;28;19920;-56
2022/10/16 03:33:02;;;;;;;;;;;;;;;;;;2106703;28;19920;-56
2022/10/16 03:34:03;;;;;;;;;;;;;;;;;;2106616;28;20242;-56
2022/10/16 03:35:03;;;;;;;;;;;;;;;;;;2106709;28;20018;-56
2022/10/16 03:36:04;;;;;;;;;;;;;;;;;;2106634;28;19977;-56
2022/10/16 03:37:05;;;;;;;;;;;;;;;;;;2106460;28;19959;-56
2022/10/16 03:38:06;;;;;;;;;;;;;;;;;;2106188;28;19920;-56
2022/10/16 03:39:07;;;;;;;;;;;;;;;;;;2106533;28;20474;-56
2022/10/16 03:40:08;;;;;;;;;;;;;;;;;;2106555;28;19920;-56
2022/10/16 03:41:09;;;;;;;;;;;;;;;;;;2106514;28;19920;-56
2022/10/16 03:42:09;;;;;;;;;;;;;;;;;;2106607;28;20284;-56
2022/10/16 03:43:10;;;;;;;;;;;;;;;;;;2106457;28;20357;-56
2022/10/16 03:44:11;;;;;;;;;;;;;;;;;;2106657;28;19924;-57
2022/10/16 03:45:12;;;;;;;;;;;;;;;;;;2106510;28;19928;-56
2022/10/16 03:46:12;;;;;;;;;;;;;;;;;;2106533;28;20109;-56
2022/10/16 03:47:13;;;;;;;;;;;;;;;;;;2106498;28;20011;-56
2022/10/16 03:48:14;;;;;;;;;;;;;;;;;;2106587;28;19920;-56
2022/10/16 03:49:15;;;;;;;;;;;;;;;;;;2106501;28;19920;-56
2022/10/16 03:50:16;;;;;;;;;;;;;;;;;;2106429;28;20360;-56
2022/10/16 03:51:17;;;;;;;;;;;;;;;;;;2106487;28;20360;-56
2022/10/16 03:52:17;;;;;;;;;;;;;;;;;;2106349;28;20003;-56
2022/10/16 03:53:19;;;;;;;;;;;;;;;;;;2106619;28;19920;-56
2022/10/16 03:54:21;;;;;;;;;;;;;;;;;;2106704;28;20391;-56
2022/10/16 03:55:22;;;;;;;;;;;;;;;;;;2106503;28;20310;-56
2022/10/16 03:56:23;;;;;;;;;;;;;;;;;;2106475;28;19920;-56
2022/10/16 03:57:24;;;;;;;;;;;;;;;;;;2105555;28;19927;-56
2022/10/16 03:58:25;;;;;;;;;;;;;;;;;;2106508;28;19969;-56
2022/10/16 03:59:26;;;;;;;;;;;;;;;;;;2106387;28;20384;-56
2022/10/16 04:00:27;;;;;;;;;;;;;;;;;;2106517;28;19920;-56
2022/10/16 04:01:28;;;;;;;;;;;;;;;;;;2106335;28;19920;-56
2022/10/16 04:02:28;;;;;;;;;;;;;;;;;;2106539;28;20357;-56
2022/10/16 04:03:29;;;;;;;;;;;;;;;;;;2106345;28;19919;-56
2022/10/16 04:04:30;;;;;;;;;;;;;;;;;;2106560;28;19927;-56
2022/10/16 04:05:31;;;;;;;;;;;;;;;;;;2106331;28;19963;-56
2022/10/16 04:06:32;;;;;;;;;;;;;;;;;;2106337;28;19951;-56
2022/10/16 04:07:32;;;;;;;;;;;;;;;;;;2106435;28;20014;-56
2022/10/16 04:08:34;;;;;;;;;;;;;;;;;;2106531;28;19985;-56
2022/10/16 04:09:35;;;;;;;;;;;;;;;;;;2106424;28;19920;-56
2022/10/16 04:10:36;;;;;;;;;;;;;;;;;;2104772;28;20353;-56
2022/10/16 04:11:37;;;;;;;;;;;;;;;;;;2106388;28;19967;-57
2022/10/16 04:12:38;;;;;;;;;;;;;;;;;;2106362;28;19920;-57
2022/10/16 04:13:39;;;;;;;;;;;;;;;;;;2106577;28;20364;-57
2022/10/16 04:14:39;;;;;;;;;;;;;;;;;;2106456;28;20006;-57
2022/10/16 04:15:40;;;;;;;;;;;;;;;;;;2106294;28;19927;-57
2022/10/16 04:16:41;;;;;;;;;;;;;;;;;;2106245;28;19920;-57
2022/10/16 04:17:42;;;;;;;;;;;;;;;;;;2106373;28;20017;-57
2022/10/16 04:18:43;;;;;;;;;;;;;;;;;;2106385;28;19920;-57
2022/10/16 04:19:43;;;;;;;;;;;;;;;;;;2106475;28;19924;-57
2022/10/16 04:20:44;;;;;;;;;;;;;;;;;;2106398;28;20410;-57
2022/10/16 04:21:45;;;;;;;;;;;;;;;;;;2106202;28;19920;-57
2022/10/16 04:22:46;;;;;;;;;;;;;;;;;;2106306;28;19971;-57
2022/10/16 04:23:47;;;;;;;;;;;;;;;;;;2106281;28;20034;-57
2022/10/16 04:24:47;;;;;;;;;;;;;;;;;;2106285;28;20293;-57
2022/10/16 04:25:48;;;;;;;;;;;;;;;;;;2106362;28;19926;-57
2022/10/16 04:26:49;;;;;;;;;;;;;;;;;;2106193;28;20292;-57
2022/10/16 04:27:50;;;;;;;;;;;;;;;;;;2106301;28;19920;-57
2022/10/16 04:28:51;;;;;;;;;;;;;;;;;;2106395;28;19920;-57
2022/10/16 04:29:52;;;;;;;;;;;;;;;;;;2106211;28;19920;-57
2022/10/16 04:30:52;;;;;;;;;;;;;;;;;;2106223;28;19927;-57
2022/10/16 04:31:53;;;;;;;;;;;;;;;;;;2106275;28;20057;-57
2022/10/16 04:32:54;;;;;;;;;;;;;;;;;;2106231;28;20254;-57
2022/10/16 04:33:55;;;;;;;;;;;;;;;;;;2106386;28;19920;-57
2022/10/16 04:34:56;;;;;;;;;;;;;;;;;;2106222;28;20015;-57
2022/10/16 04:35:57;;;;;;;;;;;;;;;;;;2106338;28;19971;-57
2022/10/16 04:36:57;;;;;;;;;;;;;;;;;;2106102;28;19928;-57
2022/10/16 04:37:58;;;;;;;;;;;;;;;;;;2106339;28;19965;-57
2022/10/16 04:38:59;;;;;;;;;;;;;;;;;;2106403;28;19923;-57
2022/10/16 04:40:00;;;;;;;;;;;;;;;;;;2106321;28;19926;-57
2022/10/16 04:41:01;;;;;;;;;;;;;;;;;;2106341;28;20273;-57
2022/10/16 04:42:02;;;;;;;;;;;;;;;;;;2106049;28;19920;-57
2022/10/16 04:43:03;;;;;;;;;;;;;;;;;;2106180;28;20386;-57
2022/10/16 04:44:04;;;;;;;;;;;;;;;;;;2106159;28;19927;-57
2022/10/16 04:45:05;;;;;;;;;;;;;;;;;;2106158;28;20380;-57
2022/10/16 04:46:06;;;;;;;;;;;;;;;;;;2106242;28;19928;-57
2022/10/16 04:47:06;;;;;;;;;;;;;;;;;;2106277;28;19927;-57
2022/10/16 04:48:07;;;;;;;;;;;;;;;;;;2106167;28;20289;-57
2022/10/16 04:49:08;;;;;;;;;;;;;;;;;;2106294;28;19924;-56
2022/10/16 04:50:09;;;;;;;;;;;;;;;;;;2107222;28;19989;-57
2022/10/16 04:51:10;;;;;;;;;;;;;;;;;;2107723;28;20430;-57
2022/10/16 04:52:11;;;;;;;;;;;;;;;;;;2107574;28;20289;-56
2022/10/16 04:53:12;;;;;;;;;;;;;;;;;;2107551;28;19927;-56
2022/10/16 04:54:13;;;;;;;;;;;;;;;;;;2107568;28;19975;-56
2022/10/16 04:55:13;;;;;;;;;;;;;;;;;;2107603;28;19924;-56
2022/10/16 04:56:15;;;;;;;;;;;;;;;;;;2107842;28;19927;-57
2022/10/16 04:57:15;;;;;;;;;;;;;;;;;;2107468;28;19920;-56
2022/10/16 04:58:16;;;;;;;;;;;;;;;;;;2107857;28;20340;-56
2022/10/16 04:59:17;;;;;;;;;;;;;;;;;;2107557;28;19927;-56
2022/10/16 05:00:18;;;;;;;;;;;;;;;;;;2107640;28;19920;-56
2022/10/16 05:01:19;;;;;;;;;;;;;;;;;;2107653;28;19920;-56
2022/10/16 05:02:20;;;;;;;;;;;;;;;;;;2107609;28;19967;-56
2022/10/16 05:03:20;;;;;;;;;;;;;;;;;;2107654;28;19920;-56
2022/10/16 05:04:21;;;;;;;;;;;;;;;;;;2107506;28;19999;-56
2022/10/16 05:05:22;;;;;;;;;;;;;;;;;;2107552;28;20301;-56
2022/10/16 05:06:23;;;;;;;;;;;;;;;;;;2106456;28;19978;-57
2022/10/16 05:07:24;;;;;;;;;;;;;;;;;;2107435;28;19966;-57
2022/10/16 05:08:25;;;;;;;;;;;;;;;;;;2107529;28;20265;-57
2022/10/16 05:09:26;;;;;;;;;;;;;;;;;;2107446;28;19920;-56
2022/10/16 05:10:27;;;;;;;;;;;;;;;;;;2100581;28;19920;-56
2022/10/16 05:11:28;;;;;;;;;;;;;;;;;;2099042;28;19920;-57
2022/10/16 05:12:29;;;;;;;;;;;;;;;;;;2099255;28;19963;-56
2022/10/16 05:13:30;;;;;;;;;;;;;;;;;;2099110;28;20277;-56
2022/10/16 05:14:31;;;;;;;;;;;;;;;;;;2099082;28;20027;-56
2022/10/16 05:15:31;;;;;;;;;;;;;;;;;;2099083;28;19921;-56
2022/10/16 05:16:32;;;;;;;;;;;;;;;;;;2099045;28;19952;-56
2022/10/16 05:17:33;;;;;;;;;;;;;;;;;;2098968;28;20430;-56
2022/10/16 05:18:34;;;;;;;;;;;;;;;;;;2099084;28;20007;-57
2022/10/16 05:19:35;;;;;;;;;;;;;;;;;;2099022;28;20420;-57
2022/10/16 05:20:36;;;;;;;;;;;;;;;;;;2099166;28;19920;-57
2022/10/16 05:21:36;;;;;;;;;;;;;;;;;;2098964;28;20373;-56
2022/10/16 05:22:37;;;;;;;;;;;;;;;;;;2099154;28;19924;-57
2022/10/16 05:23:38;;;;;;;;;;;;;;;;;;2098999;28;20293;-57
2022/10/16 05:24:39;;;;;;;;;;;;;;;;;;2099013;28;20392;-56
2022/10/16 05:25:39;;;;;;;;;;;;;;;;;;2099180;28;19927;-56
2022/10/16 05:26:40;;;;;;;;;;;;;;;;;;2099026;28;19920;-56
2022/10/16 05:27:41;;;;;;;;;;;;;;;;;;2099162;28;19975;-56
2022/10/16 05:28:42;;;;;;;;;;;;;;;;;;2099033;28;19971;-56
2022/10/16 05:29:43;;;;;;;;;;;;;;;;;;2099137;28;20003;-56
2022/10/16 05:30:44;;;;;;;;;;;;;;;;;;2099093;28;19924;-56
2022/10/16 05:31:44;;;;;;;;;;;;;;;;;;2099004;28;19973;-56
2022/10/16 05:32:45;;;;;;;;;;;;;;;;;;2099110;28;19927;-56
2022/10/16 05:33:46;;;;;;;;;;;;;;;;;;2098969;28;20332;-56
2022/10/16 05:34:47;;;;;;;;;;;;;;;;;;2099151;28;20365;-56
2022/10/16 05:35:49;;;;;;;;;;;;;;;;;;2099008;28;19920;-56
2022/10/16 05:36:50;;;;;;;;;;;;;;;;;;2098896;28;20297;-56
2022/10/16 05:37:51;;;;;;;;;;;;;;;;;;2098884;28;19927;-56
2022/10/16 05:38:52;;;;;;;;;;;;;;;;;;2099068;28;20058;-56
2022/10/16 05:39:52;;;;;;;;;;;;;;;;;;2099080;28;20395;-56
2022/10/16 05:40:53;;;;;;;;;;;;;;;;;;2098925;28;20060;-56
2022/10/16 05:41:54;;;;;;;;;;;;;;;;;;2098899;28;20434;-56
2022/10/16 05:42:55;;;;;;;;;;;;;;;;;;2098961;28;20270;-56
2022/10/16 05:43:55;;;;;;;;;;;;;;;;;;2098913;28;19970;-55
2022/10/16 05:44:57;;;;;;;;;;;;;;;;;;2098845;28;19927;-56
2022/10/16 05:45:57;;;;;;;;;;;;;;;;;;2098948;28;20430;-55
2022/10/16 05:46:58;;;;;;;;;;;;;;;;;;2098870;28;19974;-56
2022/10/16 05:47:59;;;;;;;;;;;;;;;;;;2098983;28;20347;-56
2022/10/16 05:49:00;;;;;;;;;;;;;;;;;;2098948;28;20001;-56
2022/10/16 05:50:00;;;;;;;;;;;;;;;;;;2098883;28;19921;-56
2022/10/16 05:51:02;;;;;;;;;;;;;;;;;;2098962;28;19927;-55
2022/10/16 05:52:02;;;;;;;;;;;;;;;;;;2098836;28;20317;-56
2022/10/16 05:53:03;;;;;;;;;;;;;;;;;;2098995;28;20030;-56
2022/10/16 05:54:04;;;;;;;;;;;;;;;;;;2098967;28;20281;-56
2022/10/16 05:55:05;;;;;;;;;;;;;;;;;;2098854;28;20031;-56
2022/10/16 05:56:05;;;;;;;;;;;;;;;;;;2098819;28;19920;-55
2022/10/16 05:57:06;;;;;;;;;;;;;;;;;;2098952;28;19927;-56
2022/10/16 05:58:07;;;;;;;;;;;;;;;;;;2098783;28;19971;-55
2022/10/16 05:59:08;;;;;;;;;;;;;;;;;;2098841;28;19978;-56
2022/10/16 06:00:09;;;;;;;;;;;;;;;;;;2098735;28;19954;-56
2022/10/16 06:01:10;;;;;;;;;;;;;;;;;;2098648;28;19920;-55
2022/10/16 06:02:10;;;;;;;;;;;;;;;;;;2098729;28;19920;-55
2022/10/16 06:03:11;;;;;;;;;;;;;;;;;;2105994;28;19963;-56
2022/10/16 06:04:12;;;;;;;;;;;;;;;;;;2107179;28;19920;-56
2022/10/16 06:05:13;;;;;;;;;;;;;;;;;;2107100;28;20093;-55
2022/10/16 06:06:14;;;;;;;;;;;;;;;;;;2107112;28;19924;-55
2022/10/16 06:07:15;;;;;;;;;;;;;;;;;;2107089;28;20011;-56
2022/10/16 06:08:16;;;;;;;;;;;;;;;;;;2107246;28;19963;-56
2022/10/16 06:09:16;;;;;;;;;;;;;;;;;;2107112;28;20320;-56
2022/10/16 06:10:17;;;;;;;;;;;;;;;;;;2101463;28;19920;-56
2022/10/16 06:11:18;;;;;;;;;;;;;;;;;;2098711;28;20396;-56
2022/10/16 06:12:19;;;;;;;;;;;;;;;;;;2098661;28;19920;-56
2022/10/16 06:13:20;;;;;;;;;;;;;;;;;;2098811;28;19920;-56
2022/10/16 06:14:21;;;;;;;;;;;;;;;;;;2098830;28;19920;-56
2022/10/16 06:15:21;;;;;;;;;;;;;;;;;;2098945;28;20285;-56
2022/10/16 06:16:22;;;;;;;;;;;;;;;;;;2098674;28;19924;-56
2022/10/16 06:17:23;;;;;;;;;;;;;;;;;;2098568;28;19921;-56
2022/10/16 06:18:24;;;;;;;;;;;;;;;;;;2098636;28;19932;-56
2022/10/16 06:19:25;;;;;;;;;;;;;;;;;;2098664;28;19974;-56
2022/10/16 06:20:26;;;;;;;;;;;;;;;;;;2098695;28;20516;-56
2022/10/16 06:21:27;;;;;;;;;;;;;;;;;;2098608;28;19920;-56
2022/10/16 06:22:27;;;;;;;;;;;;;;;;;;2098802;28;19927;-57
2022/10/16 06:23:28;;;;;;;;;;;;;;;;;;2098799;28;20408;-56
2022/10/16 06:24:29;;;;;;;;;;;;;;;;;;2098664;28;20006;-56
2022/10/16 06:25:30;;;;;;;;;;;;;;;;;;2098897;28;19956;-56
2022/10/16 06:26:31;;;;;;;;;;;;;;;;;;2098730;28;20246;-56
2022/10/16 06:27:32;;;;;;;;;;;;;;;;;;2098569;28;19962;-56
2022/10/16 06:28:32;;;;;;;;;;;;;;;;;;2098695;28;19928;-56
2022/10/16 06:29:33;;;;;;;;;;;;;;;;;;2098622;28;19921;-56
2022/10/16 06:30:34;;;;;;;;;;;;;;;;;;2098559;28;20392;-57
2022/10/16 06:31:35;;;;;;;;;;;;;;;;;;2098715;28;19927;-56
2022/10/16 06:32:36;;;;;;;;;;;;;;;;;;2098571;28;20013;-57
2022/10/16 06:33:37;;;;;;;;;;;;;;;;;;2098668;28;19963;-56
2022/10/16 06:34:39;;;;;;;;;;;;;;;;;;2098584;28;20353;-56
2022/10/16 06:35:43;;;;;;;;;;;;;;;;;;2098598;28;20141;-56
2022/10/16 06:36:44;;;;;;;;;;;;;;;;;;2098523;28;19930;-56
2022/10/16 06:37:45;;;;;;;;;;;;;;;;;;2098659;28;20410;-55
2022/10/16 06:38:46;;;;;;;;;;;;;;;;;;2098454;28;19920;-56
2022/10/16 06:39:47;;;;;;;;;;;;;;;;;;2098547;28;20364;-56
2022/10/16 06:40:48;;;;;;;;;;;;;;;;;;2098580;28;20018;-56
2022/10/16 06:41:49;;;;;;;;;;;;;;;;;;2098560;28;19932;-57
2022/10/16 06:42:51;;;;;;;;;;;;;;;;;;2098569;28;20277;-56
2022/10/16 06:43:52;;;;;;;;;;;;;;;;;;2098627;28;19925;-56
2022/10/16 06:44:53;;;;;;;;;;;;;;;;;;2098565;28;20316;-56
2022/10/16 06:45:53;;;;;;;;;;;;;;;;;;2098625;28;19947;-56
2022/10/16 06:46:54;;;;;;;;;;;;;;;;;;2098579;28;20003;-57
2022/10/16 06:47:55;;;;;;;;;;;;;;;;;;2098435;28;20327;-56
2022/10/16 06:48:56;;;;;;;;;;;;;;;;;;2098492;28;19967;-56
2022/10/16 06:49:57;;;;;;;;;;;;;;;;;;2098436;28;19924;-56
2022/10/16 06:50:58;;;;;;;;;;;;;;;;;;2098570;28;20007;-56
2022/10/16 06:51:59;;;;;;;;;;;;;;;;;;2098434;28;19928;-56
2022/10/16 06:52:59;;;;;;;;;;;;;;;;;;2098435;28;19924;-56
2022/10/16 06:54:00;;;;;;;;;;;;;;;;;;2098508;28;19973;-57
2022/10/16 06:55:03;;;;;;;;;;;;;;;;;;2098401;28;20351;-57
2022/10/16 06:56:04;;;;;;;;;;;;;;;;;;2098550;28;19994;-56